sensor_id;sensor_type;location;lat;lon;timestamp;pressure;altitude;pressure_sealevel;temperature;humidity
72124;BME280;63818;37.134;-8.548;2023-06-14T00:00:08;101367.9;;;22.0;62.9
72124;BME280;63818;37.134;-8.548;2023-06-14T00:04:53;101373.0;;;22.0;63.2
72124;BME280;63818;37.134;-8.548;2023-06-14T00:09:39;101364.4;;;22.0;62.8
72124;BME280;63818;37.134;-8.548;2023-06-14T00:14:27;101369.2;;;22.1;63.0
72124;BME280;63818;37.134;-8.548;2023-06-14T00:19:13;101354.7;;;22.1;62.8
72124;BME280;63818;37.134;-8.548;2023-06-14T00:23:59;101339.1;;;22.1;63.1
72124;BME280;63818;37.134;-8.548;2023-06-14T00:28:45;101347.6;;;22.1;62.7
72124;BME280;63818;37.134;-8.548;2023-06-14T00:33:31;101327.6;;;22.0;62.5
72124;BME280;63818;37.134;-8.548;2023-06-14T00:38:16;101331.1;;;22.0;62.7
72124;BME280;63818;37.134;-8.548;2023-06-14T00:43:02;101326.4;;;22.0;62.7
72124;BME280;63818;37.134;-8.548;2023-06-14T00:47:49;101319.8;;;22.0;62.9
72124;BME280;63818;37.134;-8.548;2023-06-14T00:52:35;101323.6;;;22.0;62.9
72124;BME280;63818;37.134;-8.548;2023-06-14T00:57:21;101318.5;;;21.9;62.8
72124;BME280;63818;37.134;-8.548;2023-06-14T01:02:07;101315.4;;;22.0;63.0
72124;BME280;63818;37.134;-8.548;2023-06-14T01:06:58;101304.8;;;21.9;62.9
72124;BME280;63818;37.134;-8.548;2023-06-14T01:11:50;101316.1;;;21.9;62.9
72124;BME280;63818;37.134;-8.548;2023-06-14T01:16:42;101315.4;;;21.9;62.9
72124;BME280;63818;37.134;-8.548;2023-06-14T01:21:28;101307.1;;;21.9;62.9
72124;BME280;63818;37.134;-8.548;2023-06-14T01:26:14;101307.5;;;21.9;62.8
72124;BME280;63818;37.134;-8.548;2023-06-14T01:31:02;101308.1;;;21.8;63.0
72124;BME280;63818;37.134;-8.548;2023-06-14T01:35:49;101312.5;;;21.8;63.2
72124;BME280;63818;37.134;-8.548;2023-06-14T01:40:36;101301.1;;;21.8;63.2
72124;BME280;63818;37.134;-8.548;2023-06-14T01:45:25;101295.6;;;21.8;63.2
72124;BME280;63818;37.134;-8.548;2023-06-14T01:50:12;101293.7;;;21.8;63.1
72124;BME280;63818;37.134;-8.548;2023-06-14T01:54:58;101288.6;;;21.8;63.1
72124;BME280;63818;37.134;-8.548;2023-06-14T01:59:45;101287.0;;;21.8;62.9
72124;BME280;63818;37.134;-8.548;2023-06-14T02:04:31;101281.1;;;21.8;62.8
72124;BME280;63818;37.134;-8.548;2023-06-14T02:09:17;101277.6;;;21.8;63.1
72124;BME280;63818;37.134;-8.548;2023-06-14T02:14:03;101272.5;;;21.7;62.8
72124;BME280;63818;37.134;-8.548;2023-06-14T02:18:49;101268.1;;;21.7;62.9
72124;BME280;63818;37.134;-8.548;2023-06-14T02:23:34;101265.8;;;21.7;63.0
72124;BME280;63818;37.134;-8.548;2023-06-14T02:28:21;101267.0;;;21.7;62.9
72124;BME280;63818;37.134;-8.548;2023-06-14T02:33:07;101262.3;;;21.7;62.6
72124;BME280;63818;37.134;-8.548;2023-06-14T02:37:53;101274.8;;;21.7;62.4
72124;BME280;63818;37.134;-8.548;2023-06-14T02:42:39;101261.8;;;21.6;62.5
72124;BME280;63818;37.134;-8.548;2023-06-14T02:47:25;101253.9;;;21.6;61.7
72124;BME280;63818;37.134;-8.548;2023-06-14T02:52:10;101255.4;;;21.6;61.3
72124;BME280;63818;37.134;-8.548;2023-06-14T02:56:56;101254.6;;;21.5;61.2
72124;BME280;63818;37.134;-8.548;2023-06-14T03:01:42;101250.7;;;21.5;61.2
72124;BME280;63818;37.134;-8.548;2023-06-14T03:06:28;101250.0;;;21.6;61.0
72124;BME280;63818;37.134;-8.548;2023-06-14T03:11:14;101251.6;;;21.6;61.1
72124;BME280;63818;37.134;-8.548;2023-06-14T03:16:00;101251.9;;;21.5;61.7
72124;BME280;63818;37.134;-8.548;2023-06-14T03:20:46;101246.8;;;21.5;61.8
72124;BME280;63818;37.134;-8.548;2023-06-14T03:25:35;101245.6;;;21.5;61.6
72124;BME280;63818;37.134;-8.548;2023-06-14T03:30:21;101235.8;;;21.5;61.8
72124;BME280;63818;37.134;-8.548;2023-06-14T03:35:10;101239.4;;;21.5;61.5
72124;BME280;63818;37.134;-8.548;2023-06-14T03:39:56;101232.3;;;21.5;61.3
72124;BME280;63818;37.134;-8.548;2023-06-14T03:44:42;101234.7;;;21.5;60.6
72124;BME280;63818;37.134;-8.548;2023-06-14T03:49:28;101235.4;;;21.5;60.1
72124;BME280;63818;37.134;-8.548;2023-06-14T03:54:14;101228.7;;;21.5;59.4
72124;BME280;63818;37.134;-8.548;2023-06-14T03:59:00;101226.1;;;21.5;59.5
72124;BME280;63818;37.134;-8.548;2023-06-14T04:03:51;101219.0;;;21.5;59.5
72124;BME280;63818;37.134;-8.548;2023-06-14T04:08:37;101215.5;;;21.5;59.6
72124;BME280;63818;37.134;-8.548;2023-06-14T04:13:23;101227.3;;;21.5;59.6
72124;BME280;63818;37.134;-8.548;2023-06-14T04:18:09;101229.6;;;21.5;59.5
72124;BME280;63818;37.134;-8.548;2023-06-14T04:22:56;101244.9;;;21.6;59.6
72124;BME280;63818;37.134;-8.548;2023-06-14T04:27:42;101246.0;;;21.5;59.4
72124;BME280;63818;37.134;-8.548;2023-06-14T04:32:29;101250.7;;;21.5;59.5
72124;BME280;63818;37.134;-8.548;2023-06-14T04:37:15;101254.2;;;21.5;59.5
72124;BME280;63818;37.134;-8.548;2023-06-14T04:42:01;101245.6;;;21.5;59.6
72124;BME280;63818;37.134;-8.548;2023-06-14T04:46:47;101248.7;;;21.5;59.4
72124;BME280;63818;37.134;-8.548;2023-06-14T04:51:33;101250.3;;;21.5;59.5
72124;BME280;63818;37.134;-8.548;2023-06-14T04:56:19;101255.7;;;21.5;59.3
72124;BME280;63818;37.134;-8.548;2023-06-14T05:01:05;101263.2;;;21.5;59.3
72124;BME280;63818;37.134;-8.548;2023-06-14T05:05:51;101278.0;;;21.5;59.5
72124;BME280;63818;37.134;-8.548;2023-06-14T05:10:37;101270.4;;;21.4;59.6
72124;BME280;63818;37.134;-8.548;2023-06-14T05:15:24;101278.9;;;21.4;60.3
72124;BME280;63818;37.134;-8.548;2023-06-14T05:20:10;101279.8;;;21.4;60.1
72124;BME280;63818;37.134;-8.548;2023-06-14T05:24:57;101291.0;;;21.4;60.4
72124;BME280;63818;37.134;-8.548;2023-06-14T05:29:43;101288.7;;;21.3;60.8
72124;BME280;63818;37.134;-8.548;2023-06-14T05:34:28;101291.7;;;21.3;61.6
72124;BME280;63818;37.134;-8.548;2023-06-14T05:39:15;101294.9;;;21.3;61.5
72124;BME280;63818;37.134;-8.548;2023-06-14T05:44:00;101292.1;;;21.3;61.7
72124;BME280;63818;37.134;-8.548;2023-06-14T05:48:46;101286.2;;;21.3;61.7
72124;BME280;63818;37.134;-8.548;2023-06-14T05:53:33;101297.6;;;21.3;61.8
72124;BME280;63818;37.134;-8.548;2023-06-14T05:58:18;101305.0;;;21.3;61.9
72124;BME280;63818;37.134;-8.548;2023-06-14T06:03:04;101302.7;;;21.3;62.2
72124;BME280;63818;37.134;-8.548;2023-06-14T06:07:51;101296.9;;;21.3;62.2
72124;BME280;63818;37.134;-8.548;2023-06-14T06:12:37;101299.7;;;21.4;62.0
72124;BME280;63818;37.134;-8.548;2023-06-14T06:17:27;101296.1;;;21.3;62.1
72124;BME280;63818;37.134;-8.548;2023-06-14T06:22:12;101300.8;;;21.3;62.1
72124;BME280;63818;37.134;-8.548;2023-06-14T06:26:59;101306.3;;;21.4;62.3
72124;BME280;63818;37.134;-8.548;2023-06-14T06:31:44;101297.6;;;21.3;62.2
72124;BME280;63818;37.134;-8.548;2023-06-14T06:36:30;101303.9;;;21.3;62.0
72124;BME280;63818;37.134;-8.548;2023-06-14T06:41:16;101305.9;;;21.4;61.7
72124;BME280;63818;37.134;-8.548;2023-06-14T06:46:02;101309.9;;;21.4;61.6
72124;BME280;63818;37.134;-8.548;2023-06-14T06:50:48;101306.4;;;21.4;61.6
72124;BME280;63818;37.134;-8.548;2023-06-14T06:55:36;101309.6;;;21.5;61.6
72124;BME280;63818;37.134;-8.548;2023-06-14T07:00:23;101303.8;;;21.5;61.5
72124;BME280;63818;37.134;-8.548;2023-06-14T07:05:09;101306.6;;;21.5;61.7
72124;BME280;63818;37.134;-8.548;2023-06-14T07:09:55;101321.8;;;21.5;61.8
72124;BME280;63818;37.134;-8.548;2023-06-14T07:14:41;101325.4;;;21.6;61.7
72124;BME280;63818;37.134;-8.548;2023-06-14T07:19:27;101331.3;;;21.6;62.3
72124;BME280;63818;37.134;-8.548;2023-06-14T07:24:14;101334.4;;;21.6;61.9
72124;BME280;63818;37.134;-8.548;2023-06-14T07:29:00;101333.6;;;21.6;61.5
72124;BME280;63818;37.134;-8.548;2023-06-14T07:33:46;101337.1;;;21.6;61.2
72124;BME280;63818;37.134;-8.548;2023-06-14T07:38:32;101328.9;;;21.6;61.2
72124;BME280;63818;37.134;-8.548;2023-06-14T07:43:18;101341.8;;;21.6;61.4
72124;BME280;63818;37.134;-8.548;2023-06-14T07:48:04;101335.2;;;21.6;61.8
72124;BME280;63818;37.134;-8.548;2023-06-14T07:52:50;101336.8;;;21.6;61.6
72124;BME280;63818;37.134;-8.548;2023-06-14T07:57:36;101338.0;;;21.6;61.5
72124;BME280;63818;37.134;-8.548;2023-06-14T08:02:21;101349.3;;;21.6;61.7
72124;BME280;63818;37.134;-8.548;2023-06-14T08:07:10;101344.3;;;21.7;61.5
72124;BME280;63818;37.134;-8.548;2023-06-14T08:11:56;101354.5;;;21.7;61.9
72124;BME280;63818;37.134;-8.548;2023-06-14T08:16:42;101362.8;;;21.7;61.9
72124;BME280;63818;37.134;-8.548;2023-06-14T08:21:28;101368.6;;;21.8;61.9
72124;BME280;63818;37.134;-8.548;2023-06-14T08:26:14;101364.4;;;21.8;61.9
72124;BME280;63818;37.134;-8.548;2023-06-14T08:31:00;101373.0;;;21.8;61.5
72124;BME280;63818;37.134;-8.548;2023-06-14T08:35:48;101380.4;;;21.8;61.5
72124;BME280;63818;37.134;-8.548;2023-06-14T08:40:37;101380.8;;;21.8;61.1
72124;BME280;63818;37.134;-8.548;2023-06-14T08:45:24;101372.6;;;21.8;60.9
72124;BME280;63818;37.134;-8.548;2023-06-14T08:50:10;101368.2;;;21.7;60.9
72124;BME280;63818;37.134;-8.548;2023-06-14T08:54:57;101367.4;;;21.7;61.2
72124;BME280;63818;37.134;-8.548;2023-06-14T08:59:46;101367.1;;;21.8;61.3
72124;BME280;63818;37.134;-8.548;2023-06-14T09:04:32;101370.8;;;21.9;61.3
72124;BME280;63818;37.134;-8.548;2023-06-14T09:09:18;101364.9;;;21.9;61.3
72124;BME280;63818;37.134;-8.548;2023-06-14T09:14:04;101363.8;;;21.9;61.1
72124;BME280;63818;37.134;-8.548;2023-06-14T09:18:50;101363.8;;;21.9;61.2
72124;BME280;63818;37.134;-8.548;2023-06-14T09:23:40;101361.5;;;21.9;61.2
72124;BME280;63818;37.134;-8.548;2023-06-14T09:28:28;101354.5;;;22.0;61.3
72124;BME280;63818;37.134;-8.548;2023-06-14T09:33:18;101357.7;;;22.0;61.3
72124;BME280;63818;37.134;-8.548;2023-06-14T09:38:04;101352.3;;;22.0;61.4
72124;BME280;63818;37.134;-8.548;2023-06-14T09:42:51;101359.7;;;22.0;61.7
72124;BME280;63818;37.134;-8.548;2023-06-14T09:47:38;101348.4;;;22.1;61.5
72124;BME280;63818;37.134;-8.548;2023-06-14T09:52:25;101352.7;;;22.0;61.2
72124;BME280;63818;37.134;-8.548;2023-06-14T09:57:11;101347.2;;;22.0;61.3
72124;BME280;63818;37.134;-8.548;2023-06-14T10:01:58;101354.6;;;22.0;61.6
72124;BME280;63818;37.134;-8.548;2023-06-14T10:06:45;101346.1;;;22.1;61.4
72124;BME280;63818;37.134;-8.548;2023-06-14T10:11:31;101341.0;;;22.1;61.7
72124;BME280;63818;37.134;-8.548;2023-06-14T10:16:22;101339.5;;;22.1;61.4
72124;BME280;63818;37.134;-8.548;2023-06-14T10:21:13;101335.8;;;22.2;61.2
72124;BME280;63818;37.134;-8.548;2023-06-14T10:26:02;101334.6;;;22.3;61.3
72124;BME280;63818;37.134;-8.548;2023-06-14T10:31:04;101329.2;;;22.3;61.2
72124;BME280;63818;37.134;-8.548;2023-06-14T10:36:08;101319.0;;;22.3;61.2
72124;BME280;63818;37.134;-8.548;2023-06-14T10:40:55;101318.3;;;22.3;60.9
72124;BME280;63818;37.134;-8.548;2023-06-14T10:46:16;101305.1;;;22.4;60.0
72124;BME280;63818;37.134;-8.548;2023-06-14T10:51:02;101287.9;;;22.5;59.8
72124;BME280;63818;37.134;-8.548;2023-06-14T10:55:51;101290.0;;;22.5;59.4
72124;BME280;63818;37.134;-8.548;2023-06-14T11:00:37;101284.5;;;22.5;59.0
72124;BME280;63818;37.134;-8.548;2023-06-14T11:05:27;101283.4;;;22.6;58.4
72124;BME280;63818;37.134;-8.548;2023-06-14T11:10:25;101273.7;;;22.7;57.8
72124;BME280;63818;37.134;-8.548;2023-06-14T11:15:14;101265.1;;;22.7;58.2
72124;BME280;63818;37.134;-8.548;2023-06-14T11:20:10;101272.5;;;22.6;59.4
72124;BME280;63818;37.134;-8.548;2023-06-14T11:24:56;101272.8;;;22.6;59.8
72124;BME280;63818;37.134;-8.548;2023-06-14T11:29:49;101259.9;;;22.6;60.1
72124;BME280;63818;37.134;-8.548;2023-06-14T11:34:35;101261.8;;;22.6;60.2
72124;BME280;63818;37.134;-8.548;2023-06-14T11:39:24;101247.0;;;22.6;60.7
72124;BME280;63818;37.134;-8.548;2023-06-14T11:44:11;101245.4;;;22.6;61.6
72124;BME280;63818;37.134;-8.548;2023-06-14T11:48:57;101245.8;;;22.6;61.6
72124;BME280;63818;37.134;-8.548;2023-06-14T11:53:44;101239.2;;;22.6;61.3
72124;BME280;63818;37.134;-8.548;2023-06-14T11:58:31;101247.4;;;22.6;61.4
72124;BME280;63818;37.134;-8.548;2023-06-14T12:03:17;101240.4;;;22.7;61.6
72124;BME280;63818;37.134;-8.548;2023-06-14T12:08:05;101223.6;;;22.7;61.4
72124;BME280;63818;37.134;-8.548;2023-06-14T12:12:56;101231.4;;;22.7;61.3
72124;BME280;63818;37.134;-8.548;2023-06-14T12:17:42;101221.3;;;22.7;61.1
72124;BME280;63818;37.134;-8.548;2023-06-14T12:22:28;101221.7;;;22.8;61.7
72124;BME280;63818;37.134;-8.548;2023-06-14T12:27:15;101221.4;;;22.8;61.8
72124;BME280;63818;37.134;-8.548;2023-06-14T12:32:01;101213.9;;;22.8;62.4
72124;BME280;63818;37.134;-8.548;2023-06-14T12:36:50;101218.7;;;22.8;62.9
72124;BME280;63818;37.134;-8.548;2023-06-14T12:41:35;101209.7;;;22.9;62.9
72124;BME280;63818;37.134;-8.548;2023-06-14T12:46:22;101207.0;;;22.9;62.5
72124;BME280;63818;37.134;-8.548;2023-06-14T12:51:08;101207.0;;;22.9;62.2
72124;BME280;63818;37.134;-8.548;2023-06-14T12:55:53;101195.7;;;22.9;61.5
72124;BME280;63818;37.134;-8.548;2023-06-14T13:00:39;101191.8;;;23.0;61.6
72124;BME280;63818;37.134;-8.548;2023-06-14T13:05:25;101182.9;;;23.1;60.7
72124;BME280;63818;37.134;-8.548;2023-06-14T13:10:11;101184.0;;;23.1;61.2
72124;BME280;63818;37.134;-8.548;2023-06-14T13:14:57;101172.8;;;23.3;61.6
72124;BME280;63818;37.134;-8.548;2023-06-14T13:19:43;101166.6;;;23.4;61.9
72124;BME280;63818;37.134;-8.548;2023-06-14T13:24:30;101174.4;;;23.4;62.5
72124;BME280;63818;37.134;-8.548;2023-06-14T13:29:15;101183.6;;;23.6;61.9
72124;BME280;63818;37.134;-8.548;2023-06-14T13:34:01;101147.9;;;23.6;61.4
72124;BME280;63818;37.134;-8.548;2023-06-14T13:38:47;101140.5;;;23.6;61.4
72124;BME280;63818;37.134;-8.548;2023-06-14T13:43:33;101157.0;;;23.8;60.3
72124;BME280;63818;37.134;-8.548;2023-06-14T13:48:19;101159.8;;;24.0;60.2
72124;BME280;63818;37.134;-8.548;2023-06-14T13:53:05;101151.2;;;24.0;59.8
72124;BME280;63818;37.134;-8.548;2023-06-14T13:57:51;101148.9;;;24.0;59.8
72124;BME280;63818;37.134;-8.548;2023-06-14T14:02:37;101150.4;;;24.0;59.9
72124;BME280;63818;37.134;-8.548;2023-06-14T14:07:23;101144.6;;;24.0;59.6
72124;BME280;63818;37.134;-8.548;2023-06-14T14:12:09;101136.7;;;23.9;59.8
72124;BME280;63818;37.134;-8.548;2023-06-14T14:16:55;101134.3;;;24.0;59.9
72124;BME280;63818;37.134;-8.548;2023-06-14T14:21:41;101132.0;;;24.1;59.2
72124;BME280;63818;37.134;-8.548;2023-06-14T14:26:27;101136.3;;;24.2;59.2
72124;BME280;63818;37.134;-8.548;2023-06-14T14:31:13;101134.8;;;24.2;59.0
72124;BME280;63818;37.134;-8.548;2023-06-14T14:35:58;101125.4;;;24.4;58.6
72124;BME280;63818;37.134;-8.548;2023-06-14T14:40:45;101114.8;;;24.4;58.7
72124;BME280;63818;37.134;-8.548;2023-06-14T14:45:31;101138.8;;;24.4;59.0
72124;BME280;63818;37.134;-8.548;2023-06-14T14:50:17;101130.1;;;24.4;58.6
72124;BME280;63818;37.134;-8.548;2023-06-14T14:55:08;101129.4;;;24.5;58.6
72124;BME280;63818;37.134;-8.548;2023-06-14T14:59:55;101132.9;;;24.6;58.1
72124;BME280;63818;37.134;-8.548;2023-06-14T15:04:41;101122.3;;;24.7;57.9
72124;BME280;63818;37.134;-8.548;2023-06-14T15:09:27;101123.9;;;24.8;58.0
72124;BME280;63818;37.134;-8.548;2023-06-14T15:14:12;101133.7;;;24.7;58.2
72124;BME280;63818;37.134;-8.548;2023-06-14T15:18:58;101146.2;;;24.8;58.1
72124;BME280;63818;37.134;-8.548;2023-06-14T15:23:45;101170.6;;;24.9;57.9
72124;BME280;63818;37.134;-8.548;2023-06-14T15:28:31;101154.1;;;25.0;57.6
72124;BME280;63818;37.134;-8.548;2023-06-14T15:33:17;101157.6;;;25.0;57.3
72124;BME280;63818;37.134;-8.548;2023-06-14T15:38:03;101141.1;;;25.1;57.0
72124;BME280;63818;37.134;-8.548;2023-06-14T15:42:49;101147.0;;;25.1;56.9
72124;BME280;63818;37.134;-8.548;2023-06-14T15:47:35;101139.6;;;25.1;56.9
72124;BME280;63818;37.134;-8.548;2023-06-14T15:52:21;101137.2;;;25.1;56.7
72124;BME280;63818;37.134;-8.548;2023-06-14T15:57:07;101140.3;;;25.1;56.5
72124;BME280;63818;37.134;-8.548;2023-06-14T16:01:52;101141.9;;;25.4;56.1
72124;BME280;63818;37.134;-8.548;2023-06-14T16:06:38;101142.6;;;25.6;55.5
72124;BME280;63818;37.134;-8.548;2023-06-14T16:11:25;101159.8;;;25.7;54.7
72124;BME280;63818;37.134;-8.548;2023-06-14T16:16:11;101163.4;;;25.8;54.6
72124;BME280;63818;37.134;-8.548;2023-06-14T16:20:58;101166.0;;;25.9;54.5
72124;BME280;63818;37.134;-8.548;2023-06-14T16:25:44;101176.3;;;25.9;54.4
72124;BME280;63818;37.134;-8.548;2023-06-14T16:30:30;101170.0;;;25.9;54.3
72124;BME280;63818;37.134;-8.548;2023-06-14T16:35:16;101157.8;;;25.9;54.2
72124;BME280;63818;37.134;-8.548;2023-06-14T16:40:01;101172.0;;;25.9;53.5
72124;BME280;63818;37.134;-8.548;2023-06-14T16:44:47;101160.9;;;25.9;53.5
72124;BME280;63818;37.134;-8.548;2023-06-14T16:49:33;101173.6;;;25.8;53.3
72124;BME280;63818;37.134;-8.548;2023-06-14T16:54:19;101161.4;;;25.8;53.2
72124;BME280;63818;37.134;-8.548;2023-06-14T16:59:05;101177.1;;;25.8;53.3
72124;BME280;63818;37.134;-8.548;2023-06-14T17:03:51;101177.1;;;25.8;52.3
72124;BME280;63818;37.134;-8.548;2023-06-14T17:08:37;101151.9;;;25.9;52.4
72124;BME280;63818;37.134;-8.548;2023-06-14T17:13:23;101153.2;;;25.7;52.6
72124;BME280;63818;37.134;-8.548;2023-06-14T17:18:09;101167.3;;;25.7;52.6
72124;BME280;63818;37.134;-8.548;2023-06-14T17:22:56;101167.7;;;25.6;52.2
72124;BME280;63818;37.134;-8.548;2023-06-14T17:27:42;101149.6;;;25.7;52.5
72124;BME280;63818;37.134;-8.548;2023-06-14T17:32:27;101165.4;;;25.5;52.7
72124;BME280;63818;37.134;-8.548;2023-06-14T17:37:13;101152.4;;;25.5;52.7
72124;BME280;63818;37.134;-8.548;2023-06-14T17:42:02;101168.9;;;25.5;53.1
72124;BME280;63818;37.134;-8.548;2023-06-14T17:46:48;101184.3;;;25.6;52.6
72124;BME280;63818;37.134;-8.548;2023-06-14T17:51:34;101187.4;;;25.6;52.6
72124;BME280;63818;37.134;-8.548;2023-06-14T17:56:22;101179.1;;;25.5;52.9
72124;BME280;63818;37.134;-8.548;2023-06-14T18:01:10;101190.5;;;25.5;53.1
72124;BME280;63818;37.134;-8.548;2023-06-14T18:05:56;101193.7;;;25.5;53.7
72124;BME280;63818;37.134;-8.548;2023-06-14T18:10:43;101209.8;;;25.6;54.0
72124;BME280;63818;37.134;-8.548;2023-06-14T18:15:29;101209.0;;;25.5;54.2
72124;BME280;63818;37.134;-8.548;2023-06-14T18:20:17;101197.2;;;25.5;52.9
72124;BME280;63818;37.134;-8.548;2023-06-14T18:25:03;101219.7;;;25.4;51.0
72124;BME280;63818;37.134;-8.548;2023-06-14T18:29:49;101213.4;;;25.5;51.5
72124;BME280;63818;37.134;-8.548;2023-06-14T18:34:35;101217.7;;;25.5;51.0
72124;BME280;63818;37.134;-8.548;2023-06-14T18:39:21;101217.7;;;25.5;51.4
72124;BME280;63818;37.134;-8.548;2023-06-14T18:44:07;101181.5;;;25.5;51.6
72124;BME280;63818;37.134;-8.548;2023-06-14T18:48:53;101212.2;;;25.4;52.1
72124;BME280;63818;37.134;-8.548;2023-06-14T18:53:39;101205.9;;;25.4;52.6
72124;BME280;63818;37.134;-8.548;2023-06-14T18:58:25;101213.4;;;25.4;52.9
72124;BME280;63818;37.134;-8.548;2023-06-14T19:03:10;101224.8;;;25.4;52.8
72124;BME280;63818;37.134;-8.548;2023-06-14T19:07:56;101228.7;;;25.3;52.9
72124;BME280;63818;37.134;-8.548;2023-06-14T19:12:42;101241.3;;;25.3;53.4
72124;BME280;63818;37.134;-8.548;2023-06-14T19:17:28;101242.5;;;25.3;53.4
72124;BME280;63818;37.134;-8.548;2023-06-14T19:22:14;101240.5;;;25.2;53.8
72124;BME280;63818;37.134;-8.548;2023-06-14T19:27:00;101248.4;;;25.2;54.0
72124;BME280;63818;37.134;-8.548;2023-06-14T19:31:49;101250.7;;;25.2;54.1
72124;BME280;63818;37.134;-8.548;2023-06-14T19:36:35;101242.9;;;25.1;54.2
72124;BME280;63818;37.134;-8.548;2023-06-14T19:41:21;101242.5;;;25.1;54.2
72124;BME280;63818;37.134;-8.548;2023-06-14T19:46:08;101246.0;;;25.1;54.5
72124;BME280;63818;37.134;-8.548;2023-06-14T19:50:54;101251.9;;;25.0;54.5
72124;BME280;63818;37.134;-8.548;2023-06-14T19:55:40;101242.1;;;24.9;54.8
72124;BME280;63818;37.134;-8.548;2023-06-14T20:00:29;101254.6;;;24.9;54.8
72124;BME280;63818;37.134;-8.548;2023-06-14T20:05:15;101249.9;;;24.8;54.6
72124;BME280;63818;37.134;-8.548;2023-06-14T20:10:00;101253.1;;;24.8;54.6
72124;BME280;63818;37.134;-8.548;2023-06-14T20:14:47;101251.9;;;24.8;54.2
72124;BME280;63818;37.134;-8.548;2023-06-14T20:19:32;101251.1;;;24.7;54.0
72124;BME280;63818;37.134;-8.548;2023-06-14T20:24:18;101256.6;;;24.7;53.8
72124;BME280;63818;37.134;-8.548;2023-06-14T20:29:04;101259.7;;;24.7;53.6
72124;BME280;63818;37.134;-8.548;2023-06-14T20:33:50;101247.1;;;24.7;53.2
72124;BME280;63818;37.134;-8.548;2023-06-14T20:38:36;101256.2;;;24.7;52.9
72124;BME280;63818;37.134;-8.548;2023-06-14T20:43:22;101258.5;;;24.6;53.1
72124;BME280;63818;37.134;-8.548;2023-06-14T20:48:08;101266.4;;;24.7;53.0
72124;BME280;63818;37.134;-8.548;2023-06-14T20:52:54;101269.1;;;24.7;53.3
72124;BME280;63818;37.134;-8.548;2023-06-14T20:57:41;101274.2;;;24.6;53.2
72124;BME280;63818;37.134;-8.548;2023-06-14T21:02:26;101275.8;;;24.6;53.1
72124;BME280;63818;37.134;-8.548;2023-06-14T21:07:14;101277.8;;;24.7;53.0
72124;BME280;63818;37.134;-8.548;2023-06-14T21:12:00;101285.6;;;24.7;52.8
72124;BME280;63818;37.134;-8.548;2023-06-14T21:16:46;101287.6;;;24.6;52.7
72124;BME280;63818;37.134;-8.548;2023-06-14T21:21:32;101290.3;;;24.6;52.8
72124;BME280;63818;37.134;-8.548;2023-06-14T21:26:18;101294.2;;;24.6;52.8
72124;BME280;63818;37.134;-8.548;2023-06-14T21:31:06;101296.6;;;24.6;53.0
72124;BME280;63818;37.134;-8.548;2023-06-14T21:35:52;101297.4;;;24.6;52.9
72124;BME280;63818;37.134;-8.548;2023-06-14T21:40:38;101295.4;;;24.6;53.0
72124;BME280;63818;37.134;-8.548;2023-06-14T21:45:24;101297.8;;;24.6;53.0
72124;BME280;63818;37.134;-8.548;2023-06-14T21:50:11;101307.6;;;24.7;52.9
72124;BME280;63818;37.134;-8.548;2023-06-14T21:54:57;101315.4;;;24.7;52.8
72124;BME280;63818;37.134;-8.548;2023-06-14T21:59:42;101307.6;;;24.7;52.4
72124;BME280;63818;37.134;-8.548;2023-06-14T22:04:28;101311.9;;;24.7;52.3
72124;BME280;63818;37.134;-8.548;2023-06-14T22:09:14;101310.4;;;24.7;52.7
72124;BME280;63818;37.134;-8.548;2023-06-14T22:14:01;101311.9;;;24.7;52.4
72124;BME280;63818;37.134;-8.548;2023-06-14T22:18:47;101313.9;;;24.7;52.1
72124;BME280;63818;37.134;-8.548;2023-06-14T22:23:33;101313.1;;;24.7;52.1
72124;BME280;63818;37.134;-8.548;2023-06-14T22:28:19;101302.9;;;24.6;51.6
72124;BME280;63818;37.134;-8.548;2023-06-14T22:33:05;101312.3;;;24.6;51.6
72124;BME280;63818;37.134;-8.548;2023-06-14T22:37:51;101310.7;;;24.6;51.3
72124;BME280;63818;37.134;-8.548;2023-06-14T22:42:38;101320.2;;;24.6;51.1
72124;BME280;63818;37.134;-8.548;2023-06-14T22:47:24;101309.5;;;24.6;51.6
72124;BME280;63818;37.134;-8.548;2023-06-14T22:52:10;101305.2;;;24.6;51.6
72124;BME280;63818;37.134;-8.548;2023-06-14T22:56:56;101311.5;;;24.6;51.5
72124;BME280;63818;37.134;-8.548;2023-06-14T23:01:42;101316.2;;;24.6;51.5
72124;BME280;63818;37.134;-8.548;2023-06-14T23:06:29;101310.7;;;24.6;51.5
72124;BME280;63818;37.134;-8.548;2023-06-14T23:11:17;101309.9;;;24.6;51.5
72124;BME280;63818;37.134;-8.548;2023-06-14T23:16:03;101303.7;;;24.6;51.6
72124;BME280;63818;37.134;-8.548;2023-06-14T23:20:49;101309.2;;;24.6;51.4
72124;BME280;63818;37.134;-8.548;2023-06-14T23:25:35;101304.0;;;24.6;51.3
72124;BME280;63818;37.134;-8.548;2023-06-14T23:30:21;101304.5;;;24.6;51.3
72124;BME280;63818;37.134;-8.548;2023-06-14T23:35:08;101301.3;;;24.6;52.0
72124;BME280;63818;37.134;-8.548;2023-06-14T23:39:54;101300.9;;;24.6;51.7
72124;BME280;63818;37.134;-8.548;2023-06-14T23:44:40;101295.4;;;24.6;51.6
72124;BME280;63818;37.134;-8.548;2023-06-14T23:49:26;101286.4;;;24.6;51.7
72124;BME280;63818;37.134;-8.548;2023-06-14T23:54:12;101280.1;;;24.6;52.0
72124;BME280;63818;37.134;-8.548;2023-06-14T23:58:58;101270.7;;;24.6;52.0
